sensor_id;sensor_type;location;lat;lon;timestamp;pressure;altitude;pressure_sealevel;temperature;humidity
24858;BME280;12935;50.782;6.074;2023-02-02T00:01:46;100097.81;;;6.23;100.00
24858;BME280;12935;50.782;6.074;2023-02-02T00:04:18;100104.81;;;6.24;100.00
24858;BME280;12935;50.782;6.074;2023-02-02T00:06:44;100106.03;;;6.26;100.00
24858;BME280;12935;50.782;6.074;2023-02-02T00:09:12;100109.53;;;6.27;100.00
24858;BME280;12935;50.782;6.074;2023-02-02T00:11:38;100113.84;;;6.28;100.00
24858;BME280;12935;50.782;6.074;2023-02-02T00:14:03;100108.06;;;6.29;100.00
24858;BME280;12935;50.782;6.074;2023-02-02T00:18:55;100113.13;;;6.31;100.00
24858;BME280;12935;50.782;6.074;2023-02-02T00:21:21;100102.63;;;6.29;100.00
24858;BME280;12935;50.782;6.074;2023-02-02T00:23:47;100113.56;;;6.33;100.00
24858;BME280;12935;50.782;6.074;2023-02-02T00:26:12;100104.56;;;6.29;100.00
24858;BME280;12935;50.782;6.074;2023-02-02T00:28:37;100108.81;;;6.30;100.00
24858;BME280;12935;50.782;6.074;2023-02-02T00:31:03;100104.19;;;6.30;100.00
24858;BME280;12935;50.782;6.074;2023-02-02T00:33:28;100104.97;;;6.31;100.00
24858;BME280;12935;50.782;6.074;2023-02-02T00:35:53;100102.09;;;6.40;100.00
24858;BME280;12935;50.782;6.074;2023-02-02T00:38:19;100094.22;;;6.34;100.00
24858;BME280;12935;50.782;6.074;2023-02-02T00:40:44;100099.13;;;6.29;100.00
24858;BME280;12935;50.782;6.074;2023-02-02T00:43:09;100088.19;;;6.25;100.00
24858;BME280;12935;50.782;6.074;2023-02-02T00:45:36;100088.19;;;6.25;100.00
24858;BME280;12935;50.782;6.074;2023-02-02T00:48:01;100088.44;;;6.20;100.00
24858;BME280;12935;50.782;6.074;2023-02-02T00:50:27;100098.59;;;6.23;100.00
24858;BME280;12935;50.782;6.074;2023-02-02T00:52:52;100102.00;;;6.20;100.00
24858;BME280;12935;50.782;6.074;2023-02-02T00:55:18;100086.75;;;6.16;100.00
24858;BME280;12935;50.782;6.074;2023-02-02T00:57:43;100088.34;;;6.17;100.00
24858;BME280;12935;50.782;6.074;2023-02-02T01:00:17;100101.22;;;6.20;100.00
24858;BME280;12935;50.782;6.074;2023-02-02T01:02:42;100096.94;;;6.19;100.00
24858;BME280;12935;50.782;6.074;2023-02-02T01:05:08;100095.78;;;6.20;100.00
24858;BME280;12935;50.782;6.074;2023-02-02T01:07:34;100099.72;;;6.22;100.00
24858;BME280;12935;50.782;6.074;2023-02-02T01:09:59;100094.41;;;6.26;100.00
24858;BME280;12935;50.782;6.074;2023-02-02T01:12:25;100097.81;;;6.23;100.00
24858;BME280;12935;50.782;6.074;2023-02-02T01:14:50;100100.63;;;6.26;100.00
24858;BME280;12935;50.782;6.074;2023-02-02T01:17:15;100099.81;;;6.26;100.00
24858;BME280;12935;50.782;6.074;2023-02-02T01:19:41;100110.69;;;6.26;100.00
24858;BME280;12935;50.782;6.074;2023-02-02T01:22:07;100100.97;;;6.25;100.00
24858;BME280;12935;50.782;6.074;2023-02-02T01:24:33;100100.44;;;6.19;100.00
24858;BME280;12935;50.782;6.074;2023-02-02T01:26:58;100105.59;;;6.24;100.00
24858;BME280;12935;50.782;6.074;2023-02-02T01:29:24;100112.06;;;6.20;100.00
24858;BME280;12935;50.782;6.074;2023-02-02T01:31:49;100102.69;;;6.17;100.00
24858;BME280;12935;50.782;6.074;2023-02-02T01:34:15;100107.78;;;6.19;100.00
24858;BME280;12935;50.782;6.074;2023-02-02T01:36:40;100100.69;;;6.14;100.00
24858;BME280;12935;50.782;6.074;2023-02-02T01:39:05;100107.34;;;6.17;100.00
24858;BME280;12935;50.782;6.074;2023-02-02T01:41:32;100107.16;;;6.10;100.00
24858;BME280;12935;50.782;6.074;2023-02-02T01:44:04;100109.59;;;6.15;100.00
24858;BME280;12935;50.782;6.074;2023-02-02T01:46:32;100113.56;;;6.17;100.00
24858;BME280;12935;50.782;6.074;2023-02-02T01:49:10;100113.91;;;6.16;100.00
24858;BME280;12935;50.782;6.074;2023-02-02T01:54:05;100115.75;;;6.12;100.00
24858;BME280;12935;50.782;6.074;2023-02-02T01:56:37;100113.56;;;6.17;100.00
24858;BME280;12935;50.782;6.074;2023-02-02T01:59:05;100118.53;;;6.15;100.00
24858;BME280;12935;50.782;6.074;2023-02-02T02:01:31;100122.13;;;6.19;100.00
24858;BME280;12935;50.782;6.074;2023-02-02T02:03:57;100126.44;;;6.20;100.00
24858;BME280;12935;50.782;6.074;2023-02-02T02:06:23;100119.53;;;6.23;100.00
24858;BME280;12935;50.782;6.074;2023-02-02T02:09:01;100132.03;;;6.27;100.00
24858;BME280;12935;50.782;6.074;2023-02-02T02:11:28;100130.03;;;6.24;100.00
24858;BME280;12935;50.782;6.074;2023-02-02T02:13:56;100125.72;;;6.23;100.00
24858;BME280;12935;50.782;6.074;2023-02-02T02:23:43;100101.06;;;6.28;100.00
24858;BME280;12935;50.782;6.074;2023-02-02T02:29:36;100097.22;;;6.29;100.00
24858;BME280;12935;50.782;6.074;2023-02-02T02:32:30;100103.69;;;6.25;100.00
24858;BME280;12935;50.782;6.074;2023-02-02T02:35:27;100118.91;;;6.29;100.00
24858;BME280;12935;50.782;6.074;2023-02-02T02:38:04;100108.41;;;6.28;100.00
24858;BME280;12935;50.782;6.074;2023-02-02T02:40:52;100114.25;;;6.30;100.00
24858;BME280;12935;50.782;6.074;2023-02-02T02:43:24;100125.03;;;6.26;100.00
24858;BME280;12935;50.782;6.074;2023-02-02T02:45:51;100104.13;;;6.27;100.00
24858;BME280;12935;50.782;6.074;2023-02-02T02:48:16;100108.41;;;6.28;100.00
24858;BME280;12935;50.782;6.074;2023-02-02T02:50:42;100111.81;;;6.25;100.00
24858;BME280;12935;50.782;6.074;2023-02-02T02:53:12;100117.84;;;6.34;100.00
24858;BME280;12935;50.782;6.074;2023-02-02T02:55:53;100109.38;;;6.36;100.00
24858;BME280;12935;50.782;6.074;2023-02-02T02:58:41;100113.50;;;6.29;100.00
24858;BME280;12935;50.782;6.074;2023-02-02T03:01:13;100113.56;;;6.33;100.00
24858;BME280;12935;50.782;6.074;2023-02-02T03:06:43;100110.84;;;6.33;100.00
24858;BME280;12935;50.782;6.074;2023-02-02T03:09:14;100112.25;;;6.27;100.00
24858;BME280;12935;50.782;6.074;2023-02-02T03:11:42;100111.81;;;6.25;100.00
24858;BME280;12935;50.782;6.074;2023-02-02T03:14:07;100110.69;;;6.26;100.00
24858;BME280;12935;50.782;6.074;2023-02-02T03:16:37;100117.59;;;6.23;100.00
24858;BME280;12935;50.782;6.074;2023-02-02T03:19:04;100120.31;;;6.23;100.00
24858;BME280;12935;50.782;6.074;2023-02-02T03:21:30;100115.56;;;6.20;100.00
24858;BME280;12935;50.782;6.074;2023-02-02T03:23:56;100118.72;;;6.22;100.00
24858;BME280;12935;50.782;6.074;2023-02-02T03:26:21;100127.66;;;6.23;100.00
24858;BME280;12935;50.782;6.074;2023-02-02T03:28:48;100119.97;;;6.25;100.00
24858;BME280;12935;50.782;6.074;2023-02-02T03:31:13;100124.69;;;6.28;100.00
24858;BME280;12935;50.782;6.074;2023-02-02T03:33:39;100119.88;;;6.21;100.00
24858;BME280;12935;50.782;6.074;2023-02-02T03:36:05;100128.53;;;6.27;100.00
24858;BME280;12935;50.782;6.074;2023-02-02T03:38:30;100124.59;;;6.24;100.00
24858;BME280;12935;50.782;6.074;2023-02-02T03:40:55;100132.84;;;6.28;100.00
24858;BME280;12935;50.782;6.074;2023-02-02T03:43:21;100136.69;;;6.27;100.00
24858;BME280;12935;50.782;6.074;2023-02-02T03:45:47;100135.00;;;6.22;100.00
24858;BME280;12935;50.782;6.074;2023-02-02T03:48:12;100139.66;;;6.22;100.00
24858;BME280;12935;50.782;6.074;2023-02-02T03:50:38;100144.81;;;6.27;100.00
24858;BME280;12935;50.782;6.074;2023-02-02T03:53:03;100151.38;;;6.26;100.00
24858;BME280;12935;50.782;6.074;2023-02-02T03:55:29;100139.06;;;6.28;100.00
24858;BME280;12935;50.782;6.074;2023-02-02T03:57:54;100138.34;;;6.31;100.00
24858;BME280;12935;50.782;6.074;2023-02-02T04:00:23;100141.78;;;6.28;100.00
24858;BME280;12935;50.782;6.074;2023-02-02T04:02:48;100139.06;;;6.28;100.00
24858;BME280;12935;50.782;6.074;2023-02-02T04:05:14;100141.78;;;6.28;100.00
24858;BME280;12935;50.782;6.074;2023-02-02T04:07:39;100136.41;;;6.32;100.00
24858;BME280;12935;50.782;6.074;2023-02-02T04:10:04;100137.13;;;6.29;100.00
24858;BME280;12935;50.782;6.074;2023-02-02T04:12:30;100143.34;;;6.29;100.00
24858;BME280;12935;50.782;6.074;2023-02-02T04:14:55;100139.91;;;6.32;100.00
24858;BME280;12935;50.782;6.074;2023-02-02T04:17:20;100142.63;;;6.32;100.00
24858;BME280;12935;50.782;6.074;2023-02-02T04:19:45;100145.44;;;6.36;100.00
24858;BME280;12935;50.782;6.074;2023-02-02T04:22:11;100149.63;;;6.33;100.00
24858;BME280;12935;50.782;6.074;2023-02-02T04:24:36;100146.13;;;6.33;100.00
24858;BME280;12935;50.782;6.074;2023-02-02T04:27:01;100154.19;;;6.29;100.00
24858;BME280;12935;50.782;6.074;2023-02-02T04:29:26;100152.97;;;6.27;100.00
24858;BME280;12935;50.782;6.074;2023-02-02T04:31:53;100142.91;;;6.27;100.00
24858;BME280;12935;50.782;6.074;2023-02-02T04:34:18;100152.63;;;6.28;100.00
24858;BME280;12935;50.782;6.074;2023-02-02T04:36:43;100137.03;;;6.25;100.00
24858;BME280;12935;50.782;6.074;2023-02-02T04:39:12;100142.47;;;6.25;100.00
24858;BME280;12935;50.782;6.074;2023-02-02T04:41:37;100144.38;;;6.25;100.00
24858;BME280;12935;50.782;6.074;2023-02-02T04:44:02;100152.19;;;6.26;100.00
24858;BME280;12935;50.782;6.074;2023-02-02T04:46:28;100159.88;;;6.24;100.00
24858;BME280;12935;50.782;6.074;2023-02-02T04:48:53;100165.06;;;6.29;100.00
24858;BME280;12935;50.782;6.074;2023-02-02T04:51:18;100168.91;;;6.28;100.00
24858;BME280;12935;50.782;6.074;2023-02-02T04:53:44;100151.53;;;6.17;100.00
24858;BME280;12935;50.782;6.074;2023-02-02T04:56:17;100163.53;;;6.16;100.00
24858;BME280;12935;50.782;6.074;2023-02-02T04:58:43;100170.00;;;6.12;100.00
24858;BME280;12935;50.782;6.074;2023-02-02T05:01:15;100167.53;;;6.07;100.00
24858;BME280;12935;50.782;6.074;2023-02-02T05:03:41;100170.59;;;6.05;100.00
24858;BME280;12935;50.782;6.074;2023-02-02T05:06:07;100168.34;;;6.07;100.00
24858;BME280;12935;50.782;6.074;2023-02-02T05:08:32;100167.66;;;6.10;100.00
24858;BME280;12935;50.782;6.074;2023-02-02T05:10:58;100174.09;;;6.06;100.00
24858;BME280;12935;50.782;6.074;2023-02-02T05:13:23;100189.34;;;6.10;100.00
24858;BME280;12935;50.782;6.074;2023-02-02T05:15:49;100186.19;;;6.08;100.00
24858;BME280;12935;50.782;6.074;2023-02-02T05:18:14;100190.94;;;6.11;100.00
24858;BME280;12935;50.782;6.074;2023-02-02T05:20:39;100186.19;;;6.08;100.00
24858;BME280;12935;50.782;6.074;2023-02-02T05:23:04;100198.19;;;6.07;100.00
24858;BME280;12935;50.782;6.074;2023-02-02T05:25:30;100191.75;;;5.99;100.00
24858;BME280;12935;50.782;6.074;2023-02-02T05:27:55;100186.44;;;6.03;100.00
24858;BME280;12935;50.782;6.074;2023-02-02T05:30:20;100178.56;;;5.98;100.00
24858;BME280;12935;50.782;6.074;2023-02-02T05:32:46;100170.41;;;5.98;100.00
24858;BME280;12935;50.782;6.074;2023-02-02T05:35:11;100172.75;;;5.99;100.00
24858;BME280;12935;50.782;6.074;2023-02-02T05:37:37;100178.28;;;6.03;100.00
24858;BME280;12935;50.782;6.074;2023-02-02T05:40:02;100172.41;;;6.01;100.00
24858;BME280;12935;50.782;6.074;2023-02-02T05:42:28;100171.72;;;6.04;100.00
24858;BME280;12935;50.782;6.074;2023-02-02T05:44:53;100170.94;;;6.04;100.00
24858;BME280;12935;50.782;6.074;2023-02-02T05:47:18;100164.28;;;6.01;100.00
24858;BME280;12935;50.782;6.074;2023-02-02T05:49:44;100160.78;;;6.01;100.00
24858;BME280;12935;50.782;6.074;2023-02-02T05:52:14;100160.78;;;6.01;100.00
24858;BME280;12935;50.782;6.074;2023-02-02T05:54:41;100164.38;;;6.05;100.00
24858;BME280;12935;50.782;6.074;2023-02-02T05:57:07;100167.78;;;6.02;100.00
24858;BME280;12935;50.782;6.074;2023-02-02T05:59:32;100171.84;;;6.08;100.00
24858;BME280;12935;50.782;6.074;2023-02-02T06:01:57;100187.84;;;5.97;100.00
24858;BME280;12935;50.782;6.074;2023-02-02T06:04:22;100174.16;;;5.93;100.00
24858;BME280;12935;50.782;6.074;2023-02-02T06:06:48;100183.88;;;5.94;100.00
24858;BME280;12935;50.782;6.074;2023-02-02T06:09:13;100184.22;;;5.93;100.00
24858;BME280;12935;50.782;6.074;2023-02-02T06:11:38;100181.41;;;5.89;100.00
24858;BME280;12935;50.782;6.074;2023-02-02T06:14:04;100169.63;;;5.85;100.00
24858;BME280;12935;50.782;6.074;2023-02-02T06:16:29;100168.38;;;5.83;100.00
24858;BME280;12935;50.782;6.074;2023-02-02T06:18:55;100176.97;;;5.85;100.00
24858;BME280;12935;50.782;6.074;2023-02-02T06:21:20;100181.41;;;5.89;100.00
24858;BME280;12935;50.782;6.074;2023-02-02T06:23:48;100183.19;;;5.85;100.00
24858;BME280;12935;50.782;6.074;2023-02-02T06:26:14;100188.09;;;5.80;100.00
24858;BME280;12935;50.782;6.074;2023-02-02T06:28:41;100189.66;;;5.81;100.00
24858;BME280;12935;50.782;6.074;2023-02-02T06:31:09;100192.03;;;5.82;100.00
24858;BME280;12935;50.782;6.074;2023-02-02T06:33:35;100198.59;;;5.81;100.00
24858;BME280;12935;50.782;6.074;2023-02-02T06:36:01;100189.66;;;5.81;100.00
24858;BME280;12935;50.782;6.074;2023-02-02T06:38:28;100198.59;;;5.81;100.00
24858;BME280;12935;50.782;6.074;2023-02-02T06:40:53;100210.66;;;5.84;100.00
24858;BME280;12935;50.782;6.074;2023-02-02T06:43:18;100206.94;;;5.88;100.00
24858;BME280;12935;50.782;6.074;2023-02-02T06:45:44;100194.50;;;5.87;100.00
24858;BME280;12935;50.782;6.074;2023-02-02T06:48:09;100198.66;;;5.85;100.00
24858;BME280;12935;50.782;6.074;2023-02-02T06:50:37;100198.00;;;5.88;100.00
24858;BME280;12935;50.782;6.074;2023-02-02T06:53:03;100200.38;;;5.89;100.00
24858;BME280;12935;50.782;6.074;2023-02-02T06:55:29;100205.81;;;5.89;100.00
24858;BME280;12935;50.782;6.074;2023-02-02T06:57:58;100208.97;;;5.91;100.00
24858;BME280;12935;50.782;6.074;2023-02-02T07:00:24;100209.66;;;5.88;100.00
24858;BME280;12935;50.782;6.074;2023-02-02T07:02:50;100214.84;;;5.93;100.00
24858;BME280;12935;50.782;6.074;2023-02-02T07:05:15;100213.72;;;5.94;100.00
24858;BME280;12935;50.782;6.074;2023-02-02T07:07:43;100216.09;;;5.96;100.00
24858;BME280;12935;50.782;6.074;2023-02-02T07:10:09;100211.00;;;5.94;100.00
24858;BME280;12935;50.782;6.074;2023-02-02T07:12:34;100222.63;;;5.95;100.00
24858;BME280;12935;50.782;6.074;2023-02-02T07:15:00;100217.91;;;5.92;100.00
24858;BME280;12935;50.782;6.074;2023-02-02T07:17:25;100212.81;;;5.90;100.00
24858;BME280;12935;50.782;6.074;2023-02-02T07:19:50;100196.09;;;5.88;100.00
24858;BME280;12935;50.782;6.074;2023-02-02T07:22:16;100215.97;;;5.92;100.00
24858;BME280;12935;50.782;6.074;2023-02-02T07:24:41;100211.53;;;5.88;100.00
24858;BME280;12935;50.782;6.074;2023-02-02T07:27:06;100224.47;;;5.91;100.00
24858;BME280;12935;50.782;6.074;2023-02-02T07:29:31;100231.81;;;5.90;100.00
24858;BME280;12935;50.782;6.074;2023-02-02T07:31:57;100232.59;;;5.91;100.00
24858;BME280;12935;50.782;6.074;2023-02-02T07:34:23;100237.00;;;5.95;100.00
24858;BME280;12935;50.782;6.074;2023-02-02T07:36:48;100244.91;;;5.88;100.00
24858;BME280;12935;50.782;6.074;2023-02-02T07:39:13;100241.38;;;5.88;100.00
24858;BME280;12935;50.782;6.074;2023-02-02T07:41:39;100240.84;;;5.94;100.00
24858;BME280;12935;50.782;6.074;2023-02-02T07:44:04;100231.00;;;5.90;100.00
24858;BME280;12935;50.782;6.074;2023-02-02T07:46:31;100233.25;;;5.88;100.00
24858;BME280;12935;50.782;6.074;2023-02-02T07:48:56;100237.69;;;5.92;100.00
24858;BME280;12935;50.782;6.074;2023-02-02T07:51:23;100242.75;;;5.94;100.00
24858;BME280;12935;50.782;6.074;2023-02-02T07:53:51;100240.56;;;5.99;100.00
24858;BME280;12935;50.782;6.074;2023-02-02T07:56:22;100245.94;;;5.96;100.00
24858;BME280;12935;50.782;6.074;2023-02-02T07:58:49;100227.28;;;5.94;100.00
24858;BME280;12935;50.782;6.074;2023-02-02T08:01:15;100239.72;;;5.95;100.00
24858;BME280;12935;50.782;6.074;2023-02-02T08:03:41;100232.38;;;5.96;100.00
24858;BME280;12935;50.782;6.074;2023-02-02T08:06:13;100224.22;;;5.96;100.00
24858;BME280;12935;50.782;6.074;2023-02-02T08:08:39;100242.09;;;5.97;100.00
24858;BME280;12935;50.782;6.074;2023-02-02T08:11:07;100241.63;;;5.95;100.00
24858;BME280;12935;50.782;6.074;2023-02-02T08:13:34;100240.56;;;5.99;100.00
24858;BME280;12935;50.782;6.074;2023-02-02T08:15:59;100243.75;;;6.02;100.00
24858;BME280;12935;50.782;6.074;2023-02-02T08:18:24;100244.78;;;5.97;100.00
24858;BME280;12935;50.782;6.074;2023-02-02T08:20:49;100246.38;;;5.98;100.00
24858;BME280;12935;50.782;6.074;2023-02-02T08:23:17;100259.56;;;5.99;100.00
24858;BME280;12935;50.782;6.074;2023-02-02T08:25:48;100256.72;;;6.08;100.00
24858;BME280;12935;50.782;6.074;2023-02-02T08:28:14;100259.22;;;6.01;100.00
24858;BME280;12935;50.782;6.074;2023-02-02T08:30:39;100263.50;;;6.02;100.00
24858;BME280;12935;50.782;6.074;2023-02-02T08:33:04;100271.31;;;6.04;100.00
24858;BME280;12935;50.782;6.074;2023-02-02T08:35:29;100257.97;;;6.11;100.00
24858;BME280;12935;50.782;6.074;2023-02-02T08:37:55;100280.19;;;6.16;100.00
24858;BME280;12935;50.782;6.074;2023-02-02T08:40:20;100280.53;;;6.15;100.00
24858;BME280;12935;50.782;6.074;2023-02-02T08:42:45;100283.19;;;6.11;100.00
24858;BME280;12935;50.782;6.074;2023-02-02T08:45:11;100281.69;;;6.14;100.00
24858;BME280;12935;50.782;6.074;2023-02-02T08:47:37;100297.09;;;6.10;100.00
24858;BME280;12935;50.782;6.074;2023-02-02T08:50:02;100299.34;;;6.08;100.00
24858;BME280;12935;50.782;6.074;2023-02-02T08:52:28;100312.56;;;6.09;100.00
24858;BME280;12935;50.782;6.074;2023-02-02T08:54:53;100298.66;;;6.11;100.00
24858;BME280;12935;50.782;6.074;2023-02-02T08:57:18;100300.59;;;6.10;100.00
24858;BME280;12935;50.782;6.074;2023-02-02T08:59:43;100291.22;;;6.08;100.00
24858;BME280;12935;50.782;6.074;2023-02-02T09:02:12;100288.94;;;6.10;100.00
24858;BME280;12935;50.782;6.074;2023-02-02T09:04:38;100294.03;;;6.11;100.00
24858;BME280;12935;50.782;6.074;2023-02-02T09:07:04;100305.22;;;6.10;100.00
24858;BME280;12935;50.782;6.074;2023-02-02T09:09:29;100302.06;;;6.08;100.00
24858;BME280;12935;50.782;6.074;2023-02-02T09:11:55;100301.28;;;6.07;100.00
24858;BME280;12935;50.782;6.074;2023-02-02T09:14:20;100306.00;;;6.10;100.00
24858;BME280;12935;50.782;6.074;2023-02-02T09:16:45;100318.97;;;6.17;100.00
24858;BME280;12935;50.782;6.074;2023-02-02T09:19:10;100310.38;;;6.15;100.00
24858;BME280;12935;50.782;6.074;2023-02-02T09:21:36;100318.19;;;6.16;100.00
24858;BME280;12935;50.782;6.074;2023-02-02T09:24:06;100318.91;;;6.13;100.00
24858;BME280;12935;50.782;6.074;2023-02-02T09:26:32;100338.44;;;6.19;100.00
24858;BME280;12935;50.782;6.074;2023-02-02T09:29:00;100334.56;;;6.20;100.00
24858;BME280;12935;50.782;6.074;2023-02-02T09:31:26;100347.81;;;6.21;100.00
24858;BME280;12935;50.782;6.074;2023-02-02T09:33:52;100350.75;;;6.16;100.00
24858;BME280;12935;50.782;6.074;2023-02-02T09:36:20;100361.03;;;6.23;100.00
24858;BME280;12935;50.782;6.074;2023-02-02T09:38:46;100371.56;;;6.24;100.00
24858;BME280;12935;50.782;6.074;2023-02-02T09:50:14;100374.78;;;6.30;100.00
24858;BME280;12935;50.782;6.074;2023-02-02T09:55:36;100361.34;;;6.33;100.00
24858;BME280;12935;50.782;6.074;2023-02-02T09:58:13;100371.47;;;6.49;100.00
24858;BME280;12935;50.782;6.074;2023-02-02T10:00:44;100375.53;;;6.55;100.00
24858;BME280;12935;50.782;6.074;2023-02-02T10:03:23;100386.63;;;6.50;100.00
24858;BME280;12935;50.782;6.074;2023-02-02T10:08:57;100392.19;;;6.41;100.00
24858;BME280;12935;50.782;6.074;2023-02-02T10:11:36;100401.47;;;6.40;100.00
24858;BME280;12935;50.782;6.074;2023-02-02T10:14:23;100408.34;;;6.50;100.00
24858;BME280;12935;50.782;6.074;2023-02-02T10:16:53;100411.13;;;6.65;100.00
24858;BME280;12935;50.782;6.074;2023-02-02T10:19:19;100421.00;;;6.58;100.00
24858;BME280;12935;50.782;6.074;2023-02-02T10:22:04;100428.38;;;6.57;100.00
24858;BME280;12935;50.782;6.074;2023-02-02T10:24:33;100422.13;;;6.57;100.00
24858;BME280;12935;50.782;6.074;2023-02-02T10:27:04;100429.22;;;6.61;100.00
24858;BME280;12935;50.782;6.074;2023-02-02T10:29:41;100438.44;;;6.57;100.00
24858;BME280;12935;50.782;6.074;2023-02-02T10:32:21;100426.97;;;6.63;100.00
24858;BME280;12935;50.782;6.074;2023-02-02T10:35:02;100435.56;;;6.65;100.00
24858;BME280;12935;50.782;6.074;2023-02-02T10:48:44;100432.75;;;6.62;100.00
24858;BME280;12935;50.782;6.074;2023-02-02T10:51:17;100430.19;;;6.81;100.00
24858;BME280;12935;50.782;6.074;2023-02-02T10:53:50;100423.72;;;6.86;100.00
24858;BME280;12935;50.782;6.074;2023-02-02T10:56:21;100417.06;;;6.83;100.00
24858;BME280;12935;50.782;6.074;2023-02-02T10:59:04;100435.16;;;6.91;100.00
24858;BME280;12935;50.782;6.074;2023-02-02T11:01:30;100424.88;;;6.85;100.00
24858;BME280;12935;50.782;6.074;2023-02-02T11:03:56;100423.91;;;6.93;100.00
24858;BME280;12935;50.782;6.074;2023-02-02T11:06:40;100434.72;;;6.89;100.00
24858;BME280;12935;50.782;6.074;2023-02-02T11:09:18;100430.50;;;6.92;100.00
24858;BME280;12935;50.782;6.074;2023-02-02T11:11:45;100403.59;;;6.87;100.00
24858;BME280;12935;50.782;6.074;2023-02-02T11:14:27;100420.81;;;7.07;100.00
24858;BME280;12935;50.782;6.074;2023-02-02T11:17:05;100427.97;;;6.99;100.00
24858;BME280;12935;50.782;6.074;2023-02-02T11:19:32;100436.00;;;7.08;100.00
24858;BME280;12935;50.782;6.074;2023-02-02T11:22:01;100429.31;;;7.05;100.00
24858;BME280;12935;50.782;6.074;2023-02-02T11:24:34;100423.69;;;6.98;100.00
24858;BME280;12935;50.782;6.074;2023-02-02T11:27:16;100426.41;;;6.98;100.00
24858;BME280;12935;50.782;6.074;2023-02-02T11:29:46;100429.78;;;6.95;100.00
24858;BME280;12935;50.782;6.074;2023-02-02T11:32:30;100415.38;;;7.07;100.00
24858;BME280;12935;50.782;6.074;2023-02-02T11:37:32;100448.63;;;7.16;100.00
24858;BME280;12935;50.782;6.074;2023-02-02T11:40:19;100439.00;;;7.18;100.00
24858;BME280;12935;50.782;6.074;2023-02-02T11:42:50;100435.31;;;7.26;100.00
24858;BME280;12935;50.782;6.074;2023-02-02T11:45:17;100438.03;;;7.26;100.00
24858;BME280;12935;50.782;6.074;2023-02-02T11:47:44;100430.38;;;7.16;100.00
24858;BME280;12935;50.782;6.074;2023-02-02T11:50:20;100424.59;;;7.18;100.00
24858;BME280;12935;50.782;6.074;2023-02-02T11:52:46;100409.19;;;7.22;100.00
24858;BME280;12935;50.782;6.074;2023-02-02T11:55:17;100427.59;;;7.28;100.00
24858;BME280;12935;50.782;6.074;2023-02-02T11:58:20;100427.09;;;7.38;100.00
24858;BME280;12935;50.782;6.074;2023-02-02T12:00:54;100417.44;;;7.41;100.00
24858;BME280;12935;50.782;6.074;2023-02-02T12:05:55;100411.31;;;7.44;100.00
24858;BME280;12935;50.782;6.074;2023-02-02T12:08:21;100416.94;;;7.51;100.00
24858;BME280;12935;50.782;6.074;2023-02-02T12:10:50;100408.59;;;7.60;100.00
24858;BME280;12935;50.782;6.074;2023-02-02T12:13:28;100412.78;;;7.73;100.00
24858;BME280;12935;50.782;6.074;2023-02-02T12:16:09;100403.78;;;7.53;100.00
24858;BME280;12935;50.782;6.074;2023-02-02T12:18:59;100396.66;;;7.80;100.00
24858;BME280;12935;50.782;6.074;2023-02-02T12:21:39;100395.63;;;8.04;100.00
24858;BME280;12935;50.782;6.074;2023-02-02T12:24:24;100392.16;;;7.88;100.00
24858;BME280;12935;50.782;6.074;2023-02-02T12:32:43;100385.13;;;8.02;100.00
24858;BME280;12935;50.782;6.074;2023-02-02T12:35:40;100385.53;;;8.04;100.00
24858;BME280;12935;50.782;6.074;2023-02-02T12:38:45;100379.34;;;7.88;100.00
24858;BME280;12935;50.782;6.074;2023-02-02T12:41:26;100382.78;;;7.85;100.00
24858;BME280;12935;50.782;6.074;2023-02-02T12:46:51;100378.72;;;7.95;100.00
24858;BME280;12935;50.782;6.074;2023-02-02T12:54:50;100381.78;;;7.93;100.00
24858;BME280;12935;50.782;6.074;2023-02-02T13:03:26;100372.94;;;7.96;100.00
24858;BME280;12935;50.782;6.074;2023-02-02T13:06:15;100376.97;;;8.02;100.00
24858;BME280;12935;50.782;6.074;2023-02-02T13:08:55;100378.53;;;8.03;100.00
24858;BME280;12935;50.782;6.074;2023-02-02T13:11:49;100371.69;;;7.94;100.00
24858;BME280;12935;50.782;6.074;2023-02-02T13:14:36;100381.78;;;7.93;100.00
24858;BME280;12935;50.782;6.074;2023-02-02T13:17:12;100374.69;;;7.89;100.00
24858;BME280;12935;50.782;6.074;2023-02-02T13:19:43;100375.91;;;7.91;100.00
24858;BME280;12935;50.782;6.074;2023-02-02T13:22:27;100387.06;;;8.02;100.00
24858;BME280;12935;50.782;6.074;2023-02-02T13:24:57;100381.31;;;8.07;100.00
24858;BME280;12935;50.782;6.074;2023-02-02T13:27:24;100387.16;;;7.90;100.00
24858;BME280;12935;50.782;6.074;2023-02-02T13:30:03;100378.75;;;7.79;100.00
24858;BME280;12935;50.782;6.074;2023-02-02T13:32:39;100374.88;;;7.80;100.00
24858;BME280;12935;50.782;6.074;2023-02-02T13:35:16;100373.59;;;8.09;100.00
24858;BME280;12935;50.782;6.074;2023-02-02T13:37:53;100363.44;;;8.41;100.00
24858;BME280;12935;50.782;6.074;2023-02-02T13:40:41;100382.50;;;8.41;100.00
24858;BME280;12935;50.782;6.074;2023-02-02T13:49:10;100379.84;;;8.64;100.00
24858;BME280;12935;50.782;6.074;2023-02-02T13:52:19;100362.72;;;8.44;100.00
24858;BME280;12935;50.782;6.074;2023-02-02T13:58:33;100377.66;;;8.34;100.00
24858;BME280;12935;50.782;6.074;2023-02-02T14:01:05;100362.75;;;8.28;100.00
24858;BME280;12935;50.782;6.074;2023-02-02T14:03:46;100361.94;;;8.43;100.00
24858;BME280;12935;50.782;6.074;2023-02-02T14:06:17;100371.69;;;8.44;100.00
24858;BME280;12935;50.782;6.074;2023-02-02T14:08:46;100378.97;;;8.40;100.00
24858;BME280;12935;50.782;6.074;2023-02-02T14:11:18;100382.50;;;8.41;100.00
24858;BME280;12935;50.782;6.074;2023-02-02T14:13:47;100372.66;;;8.36;100.00
24858;BME280;12935;50.782;6.074;2023-02-02T14:19:01;100374.25;;;8.57;100.00
24858;BME280;12935;50.782;6.074;2023-02-02T14:23:57;100384.00;;;8.58;100.00
24858;BME280;12935;50.782;6.074;2023-02-02T14:26:49;100382.44;;;8.57;100.00